createdAt,value
2019-02-05T00:01:22.360Z,5.33
2019-02-05T00:07:40.563Z,5.80
2019-02-05T00:13:45.452Z,5.67
2019-02-05T00:19:50.194Z,5.40
2019-02-05T00:26:05.625Z,6.00
2019-02-05T00:32:05.376Z,6.03
2019-02-05T00:38:10.456Z,6.50
2019-02-05T00:44:15.216Z,5.30
2019-02-05T00:50:20.814Z,5.20
2019-02-05T01:03:47.147Z,5.77
2019-02-05T01:09:52.641Z,5.37
2019-02-05T01:15:57.991Z,6.10
2019-02-05T01:22:02.807Z,5.90
2019-02-05T01:28:07.760Z,5.80
2019-02-05T01:34:14.111Z,6.83
2019-02-05T01:40:24.987Z,5.97
2019-02-05T01:46:29.552Z,6.30
2019-02-05T01:52:34.109Z,6.00
2019-02-05T01:58:38.662Z,5.90
2019-02-05T02:04:43.733Z,6.70
2019-02-05T02:10:48.510Z,6.60
2019-02-05T02:16:53.248Z,6.13
2019-02-05T02:22:58.150Z,5.97
2019-02-05T02:29:03.067Z,5.80
2019-02-05T02:35:07.864Z,6.47
2019-02-05T02:41:12.792Z,5.67
2019-02-05T02:47:17.540Z,6.40
2019-02-05T02:53:22.288Z,6.27
2019-02-05T02:59:26.911Z,6.67
2019-02-05T03:05:32.475Z,6.20
2019-02-05T03:11:37.113Z,6.67
2019-02-05T03:17:42.615Z,7.30
2019-02-05T03:23:47.410Z,7.17
2019-02-05T03:29:52.080Z,6.60
2019-02-05T03:35:56.788Z,7.20
2019-02-05T03:42:01.754Z,6.50
2019-02-05T03:48:06.725Z,7.40
2019-02-05T03:54:35.129Z,7.50
2019-02-05T04:00:44.366Z,6.53
2019-02-05T04:07:05.720Z,7.83
2019-02-05T04:13:26.640Z,7.20
2019-02-05T04:19:44.791Z,7.80
2019-02-05T04:26:05.909Z,8.00
2019-02-05T04:32:23.709Z,7.40
2019-02-05T04:38:38.821Z,7.50
2019-02-05T04:45:11.986Z,7.87
2019-02-05T04:51:44.750Z,8.50
2019-02-05T04:58:08.995Z,7.93
2019-02-05T05:04:37.709Z,7.87
2019-02-05T05:10:43.023Z,7.23
2019-02-05T05:16:47.770Z,8.43
2019-02-05T05:22:52.815Z,8.20
2019-02-05T05:28:57.752Z,7.70
2019-02-05T05:35:02.578Z,8.60
2019-02-05T05:41:07.132Z,7.80
2019-02-05T05:47:12.648Z,8.17
2019-02-05T05:53:17.574Z,8.17
2019-02-05T05:59:22.308Z,8.60
2019-02-05T06:05:28.758Z,8.63
2019-02-05T06:11:37.143Z,9.43
2019-02-05T06:17:42.509Z,8.70
2019-02-05T06:23:47.441Z,8.50
2019-02-05T06:29:55.096Z,9.13
2019-02-05T06:35:59.974Z,9.93
2019-02-05T06:42:04.829Z,9.20
2019-02-05T06:48:09.797Z,10.73
2019-02-05T06:54:14.889Z,10.80
2019-02-05T07:00:26.297Z,10.50
2019-02-05T07:06:30.889Z,10.77
2019-02-05T07:12:35.546Z,10.30
2019-02-05T07:18:40.369Z,9.80
2019-02-05T07:24:45.204Z,11.03
2019-02-05T07:30:50.718Z,10.10
2019-02-05T07:36:55.653Z,9.23
2019-02-05T07:43:00.535Z,11.87
2019-02-05T07:49:05.556Z,11.47
2019-02-05T07:55:11.914Z,10.57
2019-02-05T08:01:17.669Z,9.90
2019-02-05T08:07:22.560Z,10.90
2019-02-05T08:13:27.546Z,11.53
2019-02-05T08:19:32.216Z,11.20
2019-02-05T08:25:36.960Z,11.00
2019-02-05T08:31:43.262Z,12.00
2019-02-05T08:37:48.091Z,11.57
2019-02-05T08:43:52.969Z,14.87
2019-02-05T08:49:57.706Z,11.10
2019-02-05T08:56:02.440Z,10.00
2019-02-05T09:02:07.652Z,10.40
2019-02-05T09:08:12.613Z,10.57
2019-02-05T09:14:20.467Z,9.70
2019-02-05T09:20:25.572Z,10.80
2019-02-05T09:26:30.403Z,10.37
2019-02-05T09:32:35.190Z,10.30
2019-02-05T09:38:40.106Z,9.80
2019-02-05T09:44:44.992Z,14.27
2019-02-05T09:50:49.723Z,9.97
2019-02-05T09:56:54.479Z,10.80
2019-02-05T10:02:59.207Z,10.70
2019-02-05T10:09:05.627Z,10.60
2019-02-05T10:15:18.301Z,10.13
2019-02-05T10:21:23.032Z,10.43
2019-02-05T10:27:28.014Z,10.00
2019-02-05T10:33:32.601Z,9.50
2019-02-05T10:39:37.263Z,11.60
2019-02-05T10:45:42.247Z,9.70
2019-02-05T10:51:47.030Z,9.90
2019-02-05T10:57:54.201Z,9.83
2019-02-05T11:03:58.930Z,11.67
2019-02-05T11:10:05.039Z,12.67
2019-02-05T11:16:11.748Z,10.20
2019-02-05T11:22:16.385Z,10.07
2019-02-05T11:28:21.124Z,8.10
2019-02-05T11:34:25.934Z,10.10
2019-02-05T11:40:36.766Z,10.67
2019-02-05T11:46:41.990Z,9.63
2019-02-05T11:52:47.048Z,9.60
2019-02-05T11:58:52.124Z,8.13
2019-02-05T12:04:56.931Z,9.57
2019-02-05T12:11:01.745Z,9.33
2019-02-05T12:17:06.759Z,9.90
2019-02-05T12:23:12.881Z,11.90
2019-02-05T12:29:17.578Z,9.77
2019-02-05T12:35:22.270Z,8.90
2019-02-05T12:41:26.871Z,10.17
2019-02-05T12:47:31.469Z,9.50
2019-02-05T12:59:45.799Z,8.10
2019-02-05T13:05:53.098Z,10.33
2019-02-05T13:12:00.913Z,10.07
2019-02-05T13:18:06.414Z,9.87
2019-02-05T13:24:16.539Z,10.10
2019-02-05T13:30:24.603Z,9.47
2019-02-05T13:36:29.318Z,11.93
2019-02-05T13:42:34.558Z,8.53
2019-02-05T13:48:41.210Z,9.43
2019-02-05T13:54:46.135Z,8.57
2019-02-05T14:00:53.295Z,10.70
2019-02-05T14:06:58.014Z,10.03
2019-02-05T14:13:02.774Z,9.97
2019-02-05T14:19:07.478Z,11.47
2019-02-05T14:25:17.170Z,10.47
2019-02-05T14:31:31.107Z,10.43
2019-02-05T14:37:28.281Z,10.37
2019-02-05T14:43:33.243Z,9.77
2019-02-05T14:49:38.747Z,10.53
2019-02-05T14:55:44.709Z,9.57
2019-02-05T15:01:49.375Z,10.70
2019-02-05T15:07:54.453Z,10.30
2019-02-05T15:13:59.367Z,11.40
2019-02-05T15:20:05.655Z,10.83
2019-02-05T15:26:10.333Z,10.93
2019-02-05T15:32:16.777Z,11.70
2019-02-05T15:38:21.595Z,12.57
2019-02-05T15:44:26.632Z,13.20
2019-02-05T15:50:31.515Z,12.07
2019-02-05T15:56:36.175Z,10.33
2019-02-05T16:02:40.957Z,11.33
2019-02-05T16:08:45.826Z,11.80
2019-02-05T16:14:50.408Z,11.40
2019-02-05T16:20:55.211Z,12.23
2019-02-05T16:26:59.947Z,11.47
2019-02-05T16:33:06.250Z,11.27
2019-02-05T16:39:12.109Z,11.83
2019-02-05T16:45:22.726Z,11.30
2019-02-05T16:51:27.345Z,12.60
2019-02-05T16:57:32.097Z,12.93
2019-02-05T17:03:37.013Z,12.37
2019-02-05T17:09:41.783Z,10.67
2019-02-05T17:15:46.548Z,12.17
2019-02-05T17:21:51.212Z,11.83
2019-02-05T17:27:57.774Z,11.13
2019-02-05T17:34:02.555Z,11.20
2019-02-05T17:40:14.414Z,11.60
2019-02-05T17:46:19.207Z,11.03
2019-02-05T17:52:23.958Z,11.03
2019-02-05T17:58:28.604Z,10.80
2019-02-05T18:04:33.429Z,11.90
2019-02-05T18:10:38.305Z,10.90
2019-02-05T18:16:45.354Z,11.17
2019-02-05T18:22:50.050Z,12.27
2019-02-05T18:28:54.855Z,11.40
2019-02-05T18:34:59.539Z,11.60
2019-02-05T18:41:04.505Z,10.23
2019-02-05T18:47:10.059Z,11.90
2019-02-05T18:53:14.956Z,10.63
2019-02-05T18:59:19.712Z,11.60
2019-02-05T19:05:24.657Z,12.50
2019-02-05T19:11:29.309Z,13.00
2019-02-05T19:17:34.059Z,13.73
2019-02-05T19:23:38.992Z,13.17
2019-02-05T19:29:44.392Z,12.63
2019-02-05T19:35:48.982Z,11.90
2019-02-05T19:41:53.576Z,12.07
2019-02-05T19:47:59.847Z,11.90
2019-02-05T19:54:04.566Z,13.07
2019-02-05T20:00:15.924Z,11.70
2019-02-05T20:06:20.849Z,11.90
2019-02-05T20:12:25.487Z,12.13
2019-02-05T20:18:30.154Z,13.07
2019-02-05T20:24:34.764Z,12.60
2019-02-05T20:30:40.626Z,12.90
2019-02-05T20:36:45.435Z,13.87
2019-02-05T20:42:50.207Z,14.80
2019-02-05T20:48:54.854Z,15.30
2019-02-05T20:54:59.458Z,14.90
2019-02-05T21:01:04.210Z,14.87
2019-02-05T21:07:09.040Z,14.10
2019-02-05T21:13:13.753Z,15.97
2019-02-05T21:19:18.442Z,15.20
2019-02-05T21:25:24.724Z,15.67
2019-02-05T21:31:29.325Z,15.30
2019-02-05T21:37:34.088Z,15.70
2019-02-05T21:43:38.863Z,14.43
2019-02-05T21:49:43.682Z,16.57
2019-02-05T21:55:48.440Z,14.70
2019-02-05T22:01:53.082Z,16.00
2019-02-05T22:07:58.037Z,14.53
2019-02-05T22:14:03.127Z,12.90
2019-02-05T22:20:14.890Z,15.87
2019-02-05T22:26:19.648Z,16.20
2019-02-05T22:32:24.886Z,18.43
2019-02-05T22:38:29.604Z,17.43
2019-02-05T22:44:34.210Z,15.90
2019-02-05T22:50:39.585Z,17.53
2019-02-05T22:56:44.557Z,17.17
2019-02-05T23:02:49.609Z,18.13
2019-02-05T23:08:57.311Z,18.97
2019-02-05T23:15:07.516Z,16.83
2019-02-05T23:21:13.822Z,18.63
2019-02-05T23:27:18.551Z,19.27
2019-02-05T23:33:23.569Z,20.07
2019-02-05T23:39:28.418Z,19.10
2019-02-05T23:45:33.403Z,19.17
2019-02-05T23:51:38.314Z,21.03
2019-02-05T23:57:43.691Z,22.67
